Time;durP1;ratioP1;P1;durP2;ratioP2;P2;SDS_P1;SDS_P2;PMS_P1;PMS_P2;Temp;Humidity;BMP_temperature;BMP_pressure;BME280_temperature;BME280_humidity;BME280_pressure;Samples;Min_cycle;Max_cycle;Signal;HPM_P1;HPM_P2
2022/03/26 00:00:15;;;;;;;;;;;;;;;10.56;51.44;101674.88;5056590;28;20047;-76
2022/03/26 00:02:40;;;;;;;34.07;9.50;;;;;;;10.40;51.62;101674.91;5056110;28;19951;-76
2022/03/26 00:05:06;;;;;;;29.15;11.85;;;;;;;10.60;50.96;101670.78;5056147;28;20518;-77
2022/03/26 00:07:32;;;;;;;26.00;9.60;;;;;;;10.53;51.52;101669.81;5056286;28;20060;-77
2022/03/26 00:09:57;;;;;;;24.50;10.27;;;;;;;10.59;50.93;101676.34;5056025;28;20025;-77
2022/03/26 00:12:22;;;;;;;28.20;10.27;;;;;;;10.50;51.04;101667.47;5055972;28;20029;-76
2022/03/26 00:14:48;;;;;;;30.10;11.20;;;;;;;10.39;51.70;101663.28;5056152;28;20714;-77
2022/03/26 00:17:13;;;;;;;26.13;9.80;;;;;;;10.37;51.52;101669.88;5056249;28;20032;-77
2022/03/26 00:19:39;;;;;;;26.15;10.52;;;;;;;10.35;52.31;101669.22;5055612;28;20021;-76
2022/03/26 00:22:04;;;;;;;23.57;9.07;;;;;;;10.29;51.76;101664.50;5056114;28;20037;-77
2022/03/26 00:24:30;;;;;;;22.02;8.80;;;;;;;10.34;51.85;101664.84;5037638;28;20025;-78
2022/03/26 00:26:55;;;;;;;26.65;9.50;;;;;;;10.29;51.63;101659.94;5055625;28;20048;-76
2022/03/26 00:29:21;;;;;;;26.13;10.03;;;;;;;10.31;51.78;101657.94;5056590;28;20078;-77
2022/03/26 00:31:46;;;;;;;29.77;10.13;;;;;;;10.22;51.42;101658.09;5056658;28;20713;-78
2022/03/26 00:34:12;;;;;;;23.97;9.93;;;;;;;10.16;52.13;101651.56;5037979;28;20386;-77
2022/03/26 00:36:38;;;;;;;;;;;;;;;10.13;52.33;101659.13;5056494;28;20356;-78
2022/03/26 00:39:03;;;;;;;25.38;10.02;;;;;;;10.31;52.09;101659.78;5055927;28;20350;-78
2022/03/26 00:41:28;;;;;;;26.40;9.97;;;;;;;10.46;51.59;101654.50;5055528;28;20087;-78
2022/03/26 00:43:55;;;;;;;28.63;11.00;;;;;;;10.52;51.39;101649.28;5056075;28;20609;-77
2022/03/26 00:46:21;;;;;;;26.05;9.52;;;;;;;10.42;52.04;101657.53;5037893;28;20079;-77
2022/03/26 00:48:47;;;;;;;24.95;10.32;;;;;;;10.53;51.04;101642.03;5055482;28;20029;-78
2022/03/26 00:51:15;;;;;;;24.60;9.70;;;;;;;10.43;51.00;101645.75;5055335;28;20482;-77
2022/03/26 00:53:44;;;;;;;26.83;9.43;;;;;;;10.31;52.29;101651.69;5055525;28;20075;-77
2022/03/26 00:56:09;;;;;;;26.70;9.80;;;;;;;10.26;52.20;101633.34;5037668;28;20486;-76
2022/03/26 00:58:35;;;;;;;22.50;9.50;;;;;;;10.19;52.81;101642.31;5038023;28;20025;-77
2022/03/26 01:01:00;;;;;;;25.23;8.77;;;;;;;10.25;52.42;101641.59;5055958;28;20022;-78
2022/03/26 01:03:26;;;;;;;27.20;8.82;;;;;;;10.26;52.51;101644.13;5055464;28;20111;-76
2022/03/26 01:05:51;;;;;;;26.20;9.47;;;;;;;10.16;53.02;101639.94;5054602;28;20032;-76
2022/03/26 01:08:16;;;;;;;24.20;9.90;;;;;;;10.01;53.38;101642.50;5055768;28;20025;-77
2022/03/26 01:10:44;;;;;;;29.47;11.60;;;;;;;10.00;53.30;101638.13;5055480;28;20528;-76
2022/03/26 01:13:13;;;;;;;26.48;9.85;;;;;;;9.70;54.31;101645.03;5055015;28;20021;-78
2022/03/26 01:15:38;;;;;;;24.73;10.93;;;;;;;9.60;54.72;101641.69;5054922;28;20079;-77
2022/03/26 01:18:07;;;;;;;25.25;9.70;;;;;;;9.54;54.88;101639.66;5036775;28;20049;-77
2022/03/26 01:20:33;;;;;;;26.75;10.45;;;;;;;9.43;55.15;101637.31;5054934;28;20036;-78
2022/03/26 01:22:59;;;;;;;26.48;10.98;;;;;;;9.36;55.22;101635.28;5054790;28;20028;-77
2022/03/26 01:25:25;;;;;;;;;;;;;;;9.59;54.29;101637.31;5055530;28;20036;-78
2022/03/26 01:27:51;;;;;;;23.30;9.70;;;;;;;9.52;54.66;101642.53;5054864;28;19912;-77
2022/03/26 01:30:17;;;;;;;26.48;10.45;;;;;;;9.77;54.09;101645.22;5036925;28;20036;-76
2022/03/26 01:32:43;;;;;;;25.95;9.98;;;;;;;9.98;53.77;101648.22;5054824;28;20037;-76
2022/03/26 01:35:13;;;;;;;28.35;11.10;;;;;;;9.86;53.69;101652.25;5036913;28;20044;-77
2022/03/26 01:37:39;;;;;;;29.50;12.02;;;;;;;9.73;54.30;101650.09;5054341;28;20031;-77
2022/03/26 01:40:05;;;;;;;27.65;10.45;;;;;;;9.77;53.82;101651.44;5054513;28;20058;-77
2022/03/26 01:42:31;;;;;;;37.65;10.93;;;;;;;9.64;53.97;101660.03;5054574;28;20045;-77
2022/03/26 01:44:57;;;;;;;22.80;9.57;;;;;;;9.71;53.98;101668.25;5054528;28;20025;-76
2022/03/26 01:47:22;;;;;;;34.93;11.73;;;;;;;9.59;54.23;101666.91;5054215;28;20472;-78
2022/03/26 01:49:48;;;;;;;26.15;10.57;;;;;;;9.53;55.24;101659.50;5054151;28;20037;-77
2022/03/26 01:52:13;;;;;;;28.80;10.88;;;;;;;9.39;55.37;101656.50;5054092;28;20067;-77
2022/03/26 01:54:40;;;;;;;30.13;11.07;;;;;;;9.21;55.67;101655.78;5054130;28;20032;-77
2022/03/26 01:57:07;;;;;;;27.27;10.35;;;;;;;9.11;56.61;101652.44;5054053;28;20029;-77
2022/03/26 01:59:33;;;;;;;26.30;10.18;;;;;;;9.03;56.55;101657.78;5054053;28;20119;-76
2022/03/26 02:01:58;;;;;;;26.45;11.02;;;;;;;9.01;56.53;101665.16;5054794;28;20035;-77
2022/03/26 02:04:24;;;;;;;26.63;9.93;;;;;;;8.88;57.04;101664.78;5053733;28;20060;-77
2022/03/26 02:06:50;;;;;;;26.83;10.75;;;;;;;8.85;57.37;101665.97;5053720;28;20079;-77
2022/03/26 02:09:16;;;;;;;21.17;9.63;;;;;;;8.80;57.45;101659.38;5053689;28;20372;-77
2022/03/26 02:11:44;;;;;;;33.25;10.48;;;;;;;8.77;57.67;101660.56;5054128;28;20082;-77
2022/03/26 02:14:11;;;;;;;28.65;11.05;;;;;;;8.72;58.08;101659.38;5053724;28;20466;-77
2022/03/26 02:16:38;;;;;;;25.75;9.68;;;;;;;8.68;58.22;101656.16;5053428;28;20086;-77
2022/03/26 02:19:06;;;;;;;22.73;9.63;;;;;;;8.61;58.45;101655.97;5054076;28;20037;-78
2022/03/26 02:21:34;;;;;;;31.08;10.93;;;;;;;8.70;58.24;101657.69;5054466;28;20039;-77
2022/03/26 02:24:00;;;;;;;27.92;10.35;;;;;;;8.91;57.66;101657.25;5036098;28;20426;-78
2022/03/26 02:26:26;;;;;;;23.80;9.35;;;;;;;9.10;57.25;101652.59;5053446;28;20025;-77
2022/03/26 02:28:56;;;;;;;24.98;9.43;;;;;;;9.08;57.04;101654.59;5053782;28;20032;-77
2022/03/26 02:31:22;;;;;;;22.30;8.98;;;;;;;8.97;58.17;101651.19;5053716;28;20116;-77
2022/03/26 02:33:48;;;;;;;29.23;10.02;;;;;;;8.89;57.93;101653.88;5053357;28;20036;-77
2022/03/26 02:36:14;;;;;;;;;;;;;;;8.93;58.19;101651.72;5035802;28;20119;-77
2022/03/26 02:38:39;;;;;;;25.17;9.30;;;;;;;8.90;58.02;101650.19;5053504;28;19954;-77
2022/03/26 02:41:06;;;;;;;24.90;9.63;;;;;;;8.81;58.48;101651.16;5053351;28;20025;-77
2022/03/26 02:43:32;;;;;;;25.02;8.95;;;;;;;8.90;57.82;101646.66;5053455;28;20044;-78
2022/03/26 02:45:57;;;;;;;24.15;9.30;;;;;;;8.99;58.04;101651.03;5053231;28;20040;-77
2022/03/26 02:48:23;;;;;;;25.90;9.32;;;;;;;9.03;57.93;101641.66;5035971;28;20130;-78
2022/03/26 02:50:50;;;;;;;24.20;10.07;;;;;;;9.07;57.88;101643.00;5053382;28;20025;-79
2022/03/26 02:53:15;;;;;;;30.10;9.40;;;;;;;8.88;58.03;101645.97;5053439;28;20083;-79
2022/03/26 02:55:41;;;;;;;22.47;8.70;;;;;;;8.84;58.82;101647.31;5035289;28;20430;-76
2022/03/26 02:58:07;;;;;;;24.20;9.13;;;;;;;8.80;58.82;101645.94;5053070;28;20035;-77
2022/03/26 03:00:33;;;;;;;25.83;8.68;;;;;;;8.70;59.22;101646.94;5035389;28;20071;-77
2022/03/26 03:02:59;;;;;;;23.67;9.02;;;;;;;8.71;59.36;101650.47;5053267;28;20057;-77
2022/03/26 03:05:25;;;;;;;22.67;8.98;;;;;;;8.72;59.85;101645.94;5053062;28;20056;-77
2022/03/26 03:07:50;;;;;;;24.17;9.98;;;;;;;8.70;59.30;101651.47;5052895;28;20044;-77
2022/03/26 03:10:17;;;;;;;20.20;8.88;;;;;;;8.68;59.55;101654.31;5053138;28;20111;-78
2022/03/26 03:12:44;;;;;;;24.40;9.23;;;;;;;8.65;59.57;101643.03;5053186;28;20257;-77
2022/03/26 03:15:10;;;;;;;26.42;8.88;;;;;;;8.56;59.29;101655.63;5052871;28;20040;-77
2022/03/26 03:17:40;;;;;;;28.10;9.35;;;;;;;8.44;59.57;101650.69;5035169;28;20060;-77
2022/03/26 03:20:07;;;;;;;19.25;8.70;;;;;;;8.53;60.01;101660.47;5035424;28;20386;-77
2022/03/26 03:22:32;;;;;;;28.73;9.88;;;;;;;8.57;60.10;101651.09;5035213;28;20033;-77
2022/03/26 03:24:58;;;;;;;29.50;10.43;;;;;;;8.58;59.92;101652.78;5052804;28;20098;-77
2022/03/26 03:27:24;;;;;;;28.95;10.20;;;;;;;8.40;60.17;101660.94;5053159;28;20051;-78
2022/03/26 03:29:49;;;;;;;21.40;9.15;;;;;;;8.42;60.02;101658.91;5055698;28;20036;-77
2022/03/26 03:32:15;;;;;;;26.07;11.20;;;;;;;8.49;59.67;101654.56;5057100;28;20067;-77
2022/03/26 03:34:41;;;;;;;24.90;11.20;;;;;;;8.48;59.48;101655.56;5056759;28;20302;-77
2022/03/26 03:37:06;;;;;;;26.47;10.43;;;;;;;8.42;60.11;101648.16;5056912;28;20045;-77
2022/03/26 03:39:32;;;;;;;26.20;10.23;;;;;;;8.19;61.50;101655.06;5056442;28;20251;-76
2022/03/26 03:41:58;;;;;;;26.40;10.45;;;;;;;8.24;60.33;101655.44;5056676;28;20044;-76
2022/03/26 03:44:23;;;;;;;27.40;11.25;;;;;;;8.19;60.52;101655.91;5056405;28;20037;-77
2022/03/26 03:46:48;;;;;;;30.13;10.53;;;;;;;8.34;60.23;101646.28;5056360;28;20119;-77
2022/03/26 03:49:14;;;;;;;32.58;11.90;;;;;;;8.21;60.21;101648.53;5056414;28;20033;-76
2022/03/26 03:51:39;;;;;;;32.00;11.30;;;;;;;8.17;60.24;101654.38;5056448;28;20037;-76
2022/03/26 03:54:05;;;;;;;27.27;11.75;;;;;;;8.21;60.67;101653.91;5056225;28;20021;-77
2022/03/26 03:56:31;;;;;;;27.17;10.30;;;;;;;8.08;61.07;101650.78;5056394;28;20039;-77
2022/03/26 03:58:56;;;;;;;30.90;11.40;;;;;;;8.18;60.54;101648.03;5056237;28;20455;-77
2022/03/26 04:01:22;;;;;;;28.88;11.93;;;;;;;8.06;60.79;101658.16;5056271;28;20450;-77
2022/03/26 04:03:47;;;;;;;26.85;10.80;;;;;;;8.16;60.33;101652.69;5056049;28;20506;-77
2022/03/26 04:06:13;;;;;;;28.85;12.35;;;;;;;7.98;61.33;101655.44;5056292;28;20045;-77
2022/03/26 04:08:38;;;;;;;36.40;11.65;;;;;;;8.05;61.38;101648.47;5056608;28;20068;-76
2022/03/26 04:11:04;;;;;;;27.08;10.48;;;;;;;8.00;61.33;101659.66;5056451;28;20048;-76
2022/03/26 04:13:29;;;;;;;34.60;11.48;;;;;;;7.97;61.21;101657.28;5055916;28;20463;-76
2022/03/26 04:15:55;;;;;;;32.22;10.80;;;;;;;7.94;61.71;101657.59;5055819;28;20041;-76
2022/03/26 04:18:20;;;;;;;24.30;10.93;;;;;;;7.87;62.01;101656.56;5056226;28;20079;-76
2022/03/26 04:20:46;;;;;;;30.40;11.20;;;;;;;7.92;61.53;101664.97;5056093;28;20116;-77
2022/03/26 04:23:11;;;;;;;26.58;11.70;;;;;;;8.09;61.21;101659.69;5055949;28;20025;-76
2022/03/26 04:25:38;;;;;;;26.98;11.63;;;;;;;8.17;61.36;101657.06;5055635;28;20483;-76
2022/03/26 04:28:04;;;;;;;25.10;10.85;;;;;;;7.97;61.54;101662.66;5055988;28;20032;-76
2022/03/26 04:30:29;;;;;;;25.98;10.85;;;;;;;8.06;61.11;101660.84;5055597;28;20035;-76
2022/03/26 04:32:55;;;;;;;31.25;11.10;;;;;;;8.02;61.45;101663.03;5055913;28;20471;-76
2022/03/26 04:35:20;;;;;;;29.60;11.15;;;;;;;7.90;61.95;101666.94;5055736;28;20383;-77
2022/03/26 04:37:46;;;;;;;31.33;11.60;;;;;;;7.84;62.21;101661.38;5055979;28;20045;-76
2022/03/26 04:40:12;;;;;;;26.90;10.70;;;;;;;7.82;62.52;101660.69;5054900;28;20111;-77
2022/03/26 04:42:42;;;;;;;27.85;10.30;;;;;;;7.71;63.25;101659.09;5037796;28;20360;-76
2022/03/26 04:45:09;;;;;;;25.92;10.05;;;;;;;7.69;63.16;101663.81;5055934;28;20053;-76
2022/03/26 04:47:35;;;;;;;25.83;9.88;;;;;;;7.82;62.78;101656.19;5037773;28;20025;-76
2022/03/26 04:50:00;;;;;;;34.28;11.82;;;;;;;7.71;63.01;101656.41;5037639;28;20040;-76
2022/03/26 04:52:25;;;;;;;29.53;11.57;;;;;;;7.67;62.88;101663.13;5055246;28;20052;-76
2022/03/26 04:54:51;;;;;;;26.60;11.73;;;;;;;7.56;63.37;101668.69;5055216;28;20722;-74
2022/03/26 04:57:18;;;;;;;26.00;10.47;;;;;;;7.58;63.53;101674.75;5055378;28;20471;-75
2022/03/26 04:59:44;;;;;;;27.05;10.40;;;;;;;7.48;64.05;101666.81;5055246;28;20112;-74
2022/03/26 05:02:09;;;;;;;;;;;;;;;7.47;64.12;101666.97;5055709;28;20044;-74
2022/03/26 05:04:34;;;;;;;27.13;10.93;;;;;;;7.65;63.30;101654.38;5037106;28;19917;-75
2022/03/26 05:07:00;;;;;;;27.80;9.80;;;;;;;7.31;64.29;101668.50;5055121;28;20029;-76
2022/03/26 05:09:25;;;;;;;29.25;11.52;;;;;;;7.04;65.42;101665.03;5054999;28;20104;-76
2022/03/26 05:11:51;;;;;;;28.58;10.77;;;;;;;7.04;65.97;101673.91;5054939;28;20060;-74
2022/03/26 05:14:16;;;;;;;29.27;10.27;;;;;;;6.93;65.98;101674.97;5054834;28;20025;-75
2022/03/26 05:16:42;;;;;;;32.83;12.23;;;;;;;6.86;65.88;101684.59;5054839;28;20475;-75
2022/03/26 05:19:07;;;;;;;30.70;11.75;;;;;;;6.80;66.46;101682.53;5054500;28;20060;-77
2022/03/26 05:21:33;;;;;;;29.40;12.53;;;;;;;6.86;66.65;101684.59;5054588;28;20539;-76
2022/03/26 05:23:58;;;;;;;31.70;11.37;;;;;;;6.95;66.04;101681.03;5054388;28;20025;-76
2022/03/26 05:26:23;;;;;;;29.83;11.43;;;;;;;7.00;66.42;101688.59;5054909;28;20037;-76
2022/03/26 05:28:50;;;;;;;30.13;10.17;;;;;;;7.22;65.13;101698.06;5054710;28;20087;-75
2022/03/26 05:31:16;;;;;;;32.85;11.38;;;;;;;7.36;64.98;101694.00;5054420;28;20033;-76
2022/03/26 05:33:41;;;;;;;36.03;12.43;;;;;;;7.54;64.23;101700.19;5054331;28;20043;-75
2022/03/26 05:36:07;;;;;;;29.07;11.13;;;;;;;7.41;64.51;101699.75;5054351;28;20117;-75
2022/03/26 05:38:33;;;;;;;31.20;12.73;;;;;;;7.29;64.62;101696.47;5054454;28;20049;-75
2022/03/26 05:40:58;;;;;;;27.13;11.20;;;;;;;7.23;64.94;101703.25;5054082;28;20029;-75
2022/03/26 05:43:24;;;;;;;28.80;11.38;;;;;;;7.15;65.80;101705.88;5054286;28;20033;-76
2022/03/26 05:45:51;;;;;;;30.20;12.40;;;;;;;7.18;65.19;101702.88;5054305;28;20028;-75
2022/03/26 05:48:17;;;;;;;;;;;;;;;7.28;65.01;101708.19;5054865;28;20037;-75
2022/03/26 05:50:44;;;;;;;27.27;11.23;;;;;;;7.25;65.54;101709.31;5054312;28;19908;-77
2022/03/26 05:53:10;;;;;;;35.42;11.02;;;;;;;7.21;65.40;101715.13;5053945;28;20346;-77
2022/03/26 05:55:36;;;;;;;28.70;11.90;;;;;;;6.99;65.92;101716.38;5054201;28;20045;-75
2022/03/26 05:58:02;;;;;;;31.42;11.43;;;;;;;6.76;67.51;101712.44;5054262;28;20047;-75
2022/03/26 06:00:28;;;;;;;28.98;10.20;;;;;;;6.85;66.96;101720.41;5054130;28;20029;-75
2022/03/26 06:02:53;;;;;;;29.77;11.63;;;;;;;6.88;66.41;101719.28;5054039;28;20043;-75
2022/03/26 06:05:18;;;;;;;28.67;12.37;;;;;;;6.58;67.90;101723.94;5054058;28;20472;-75
2022/03/26 06:07:44;;;;;;;27.10;11.90;;;;;;;6.51;67.85;101722.84;5054105;28;20027;-75
2022/03/26 06:10:09;;;;;;;26.43;11.93;;;;;;;6.38;68.29;101725.00;5053891;28;20118;-76
2022/03/26 06:12:35;;;;;;;30.37;13.03;;;;;;;6.38;67.99;101725.00;5054037;28;20028;-75
2022/03/26 06:15:02;;;;;;;31.30;12.98;;;;;;;6.35;68.93;101730.63;5053808;28;20068;-76
2022/03/26 06:17:27;;;;;;;34.55;12.10;;;;;;;6.47;68.11;101736.66;5053898;28;20033;-76
2022/03/26 06:19:53;;;;;;;28.23;11.77;;;;;;;6.77;67.37;101738.25;5053435;28;20039;-75
2022/03/26 06:22:18;;;;;;;27.73;12.23;;;;;;;6.80;67.22;101746.84;5053762;28;20471;-76
2022/03/26 06:24:44;;;;;;;29.77;11.43;;;;;;;6.80;67.51;101737.94;5053299;28;20029;-75
2022/03/26 06:27:09;;;;;;;30.80;11.43;;;;;;;6.92;66.76;101745.63;5053788;28;20063;-76
2022/03/26 06:29:36;;;;;;;31.47;11.50;;;;;;;6.92;67.33;101750.16;5053339;28;20033;-77
2022/03/26 06:32:01;;;;;;;25.92;11.75;;;;;;;7.02;67.30;101750.09;5053576;28;20810;-76
2022/03/26 06:34:28;;;;;;;43.50;13.07;;;;;;;7.18;66.44;101750.28;5053187;28;20112;-77
2022/03/26 06:36:54;;;;;;;27.63;11.98;;;;;;;7.16;66.54;101750.44;5053481;28;20510;-76
2022/03/26 06:39:19;;;;;;;31.30;12.05;;;;;;;7.27;66.28;101755.59;5053072;28;20024;-76
2022/03/26 06:41:45;;;;;;;29.33;12.70;;;;;;;7.38;65.47;101754.53;5053537;28;20040;-77
2022/03/26 06:44:12;;;;;;;25.58;11.35;;;;;;;7.42;65.45;101749.69;5053615;28;20035;-78
2022/03/26 06:46:38;;;;;;;27.65;11.93;;;;;;;7.45;65.69;101754.78;5052937;28;20417;-77
2022/03/26 06:49:06;;;;;;;32.72;12.57;;;;;;;7.54;65.00;101756.53;5053706;28;20040;-77
2022/03/26 06:51:33;;;;;;;27.58;12.10;;;;;;;7.65;64.84;101756.31;5053225;28;20039;-77
2022/03/26 06:53:59;;;;;;;27.70;11.05;;;;;;;7.66;64.50;101755.31;5053503;28;20033;-77
2022/03/26 06:56:24;;;;;;;27.77;10.50;;;;;;;7.73;64.44;101753.69;5053138;28;20108;-77
2022/03/26 06:58:50;;;;;;;29.23;10.82;;;;;;;7.79;64.25;101755.75;5053224;28;20350;-77
2022/03/26 07:01:15;;;;;;;35.03;13.17;;;;;;;7.91;63.38;101756.34;5052981;28;20029;-77
2022/03/26 07:03:40;;;;;;;28.97;12.37;;;;;;;7.88;64.01;101764.75;5034660;28;20461;-76
2022/03/26 07:06:06;;;;;;;28.27;12.07;;;;;;;7.72;64.24;101762.72;5052891;28;20421;-76
2022/03/26 07:08:31;;;;;;;34.37;12.90;;;;;;;7.63;64.40;101771.72;5052778;28;20029;-76
2022/03/26 07:10:57;;;;;;;29.85;13.10;;;;;;;7.68;64.15;101765.91;5052925;28;20250;-77
2022/03/26 07:13:22;;;;;;;25.17;11.30;;;;;;;7.58;64.30;101766.81;5053430;28;20478;-76
2022/03/26 07:15:48;;;;;;;29.63;12.90;;;;;;;7.53;65.10;101770.91;5053385;28;20121;-77
2022/03/26 07:18:15;;;;;;;34.33;13.98;;;;;;;7.66;64.82;101766.06;5053388;28;20264;-79
2022/03/26 07:20:40;;;;;;;34.35;13.25;;;;;;;7.66;64.40;101766.06;5053879;28;20029;-79
2022/03/26 07:23:06;;;;;;;29.92;12.32;;;;;;;7.71;64.38;101769.09;5054449;28;20029;-77
2022/03/26 07:25:31;;;;;;;30.47;12.60;;;;;;;7.98;63.64;101774.38;5054750;28;20086;-77
2022/03/26 07:27:57;;;;;;;29.60;11.77;;;;;;;7.90;63.55;101762.72;5054830;28;20056;-76
2022/03/26 07:30:22;;;;;;;30.08;12.35;;;;;;;7.82;63.77;101762.66;5052707;28;20059;-77
2022/03/26 07:32:48;;;;;;;33.67;12.90;;;;;;;7.86;63.22;101772.94;5052408;28;20036;-76
2022/03/26 07:35:13;;;;;;;31.97;12.77;;;;;;;7.91;63.18;101767.94;5053305;28;20090;-78
2022/03/26 07:37:39;;;;;;;36.53;13.07;;;;;;;8.08;62.07;101768.91;5053854;28;20455;-79
2022/03/26 07:40:05;;;;;;;36.35;13.02;;;;;;;8.11;62.53;101765.06;5054044;28;20264;-76
2022/03/26 07:42:30;;;;;;;31.48;13.15;;;;;;;8.18;62.50;101768.84;5052510;28;20061;-77
2022/03/26 07:44:56;;;;;;;37.13;12.98;;;;;;;8.47;61.53;101768.56;5054287;28;20056;-77
2022/03/26 07:47:21;;;;;;;33.80;13.63;;;;;;;8.52;61.26;101772.47;5039212;28;20029;-76
2022/03/26 07:49:47;;;;;;;33.60;13.35;;;;;;;8.59;60.81;101760.09;5052864;28;20087;-75
2022/03/26 07:52:12;;;;;;;43.40;12.73;;;;;;;8.64;61.01;101764.97;5052592;28;20191;-76
2022/03/26 07:54:38;;;;;;;31.53;11.37;;;;;;;8.95;59.97;101754.56;5052668;28;20029;-77
2022/03/26 07:57:04;;;;;;;26.40;11.65;;;;;;;8.97;59.81;101760.56;5052943;28;20390;-76
2022/03/26 07:59:29;;;;;;;31.63;12.43;;;;;;;9.08;59.87;101764.84;5034855;28;20033;-76
2022/03/26 08:01:55;;;;;;;27.63;11.82;;;;;;;9.29;59.71;101765.25;5034885;28;20029;-76
2022/03/26 08:04:20;;;;;;;31.70;11.83;;;;;;;9.57;58.23;101768.50;5034636;28;20517;-75
2022/03/26 08:06:45;;;;;;;25.10;11.03;;;;;;;9.62;57.95;101771.53;5052638;28;20497;-76
2022/03/26 08:09:11;;;;;;;25.90;10.37;;;;;;;9.77;57.76;101777.09;5052773;28;20379;-77
2022/03/26 08:11:36;;;;;;;34.10;13.70;;;;;;;9.81;57.17;101775.78;5052889;28;20334;-78
2022/03/26 08:14:01;;;;;;;29.97;11.23;;;;;;;9.94;57.10;101781.50;5053624;28;20041;-76
2022/03/26 08:16:27;;;;;;;23.23;10.30;;;;;;;10.06;56.53;101775.59;5056236;28;20032;-77
2022/03/26 08:18:52;;;;;;;28.33;11.57;;;;;;;10.18;56.35;101780.66;5056319;28;20390;-76
2022/03/26 08:21:18;;;;;;;29.63;11.23;;;;;;;10.59;55.18;101782.31;5057204;28;20119;-78
2022/03/26 08:23:43;;;;;;;27.38;10.35;;;;;;;10.76;54.61;101780.41;5057734;28;20095;-77
2022/03/26 08:26:22;;;;;;;29.57;9.90;;;;;;;10.84;55.32;101779.56;5057341;28;20048;-78
2022/03/26 08:28:49;;;;;;;23.88;10.65;;;;;;;11.06;54.05;101779.66;5039469;28;20267;-77
2022/03/26 08:31:15;;;;;;;28.98;11.30;;;;;;;11.41;54.05;101790.94;5057109;28;20029;-78
2022/03/26 08:33:40;;;;;;;32.60;10.75;;;;;;;11.55;53.15;101786.63;5058856;28;20120;-77
2022/03/26 08:36:06;;;;;;;28.17;10.67;;;;;;;11.55;52.95;101784.78;5055733;28;20438;-75
2022/03/26 08:38:32;;;;;;;30.08;10.95;;;;;;;11.43;52.69;101791.63;5056019;28;20260;-75
2022/03/26 08:40:58;;;;;;;24.70;10.05;;;;;;;11.76;52.44;101785.03;5055720;28;20058;-74
2022/03/26 08:43:24;;;;;;;24.60;10.35;;;;;;;11.78;51.87;101785.69;5055781;28;20040;-75
2022/03/26 08:45:49;;;;;;;25.92;11.35;;;;;;;11.64;52.30;101791.00;5055678;28;20028;-76
2022/03/26 08:48:15;;;;;;;26.25;9.98;;;;;;;11.94;51.38;101779.31;5055609;28;20401;-76
2022/03/26 08:50:41;;;;;;;25.95;9.43;;;;;;;11.98;51.71;101779.81;5055830;28;20064;-76
2022/03/26 08:53:07;;;;;;;25.85;9.90;;;;;;;12.15;50.92;101789.44;5055887;28;20118;-75
2022/03/26 08:55:35;;;;;;;23.35;9.32;;;;;;;12.38;51.22;101794.78;5055401;28;20032;-76
2022/03/26 08:58:00;;;;;;;21.30;9.40;;;;;;;12.70;50.41;101791.78;5055345;28;20029;-76
2022/03/26 09:00:27;;;;;;;23.70;9.93;;;;;;;12.71;49.75;101788.06;5055073;28;20089;-75
2022/03/26 09:02:52;;;;;;;;;;;;;;;12.80;50.17;101789.63;5037843;28;20037;-74
2022/03/26 09:05:17;;;;;;;22.50;9.55;;;;;;;12.99;49.74;101793.66;5055584;28;19939;-74
2022/03/26 09:07:43;;;;;;;28.33;11.17;;;;;;;12.99;49.74;101798.22;5055246;28;20036;-75
2022/03/26 09:10:09;;;;;;;29.05;10.73;;;;;;;13.21;48.90;101791.91;5055175;28;20278;-75
2022/03/26 09:12:34;;;;;;;23.50;9.25;;;;;;;13.54;48.86;101790.41;5055636;28;20142;-74
2022/03/26 09:15:00;;;;;;;20.17;9.20;;;;;;;13.62;48.63;101799.44;5054643;28;20529;-74
2022/03/26 09:17:26;;;;;;;21.73;10.50;;;;;;;13.74;47.89;101796.06;5055105;28;20406;-75
2022/03/26 09:19:51;;;;;;;23.55;11.10;;;;;;;13.70;47.40;101802.03;5054681;28;20040;-75
2022/03/26 09:22:17;;;;;;;23.05;9.52;;;;;;;13.81;47.92;101804.22;5036784;28;20539;-75
2022/03/26 09:24:42;;;;;;;23.70;10.25;;;;;;;14.14;47.14;101810.00;5054449;28;20041;-74
2022/03/26 09:27:09;;;;;;;25.58;9.77;;;;;;;13.95;47.76;101797.94;5035852;28;20090;-74
2022/03/26 09:29:34;;;;;;;22.35;9.70;;;;;;;14.05;47.55;101801.16;5055797;28;20064;-75
2022/03/26 09:32:02;;;;;;;21.88;9.50;;;;;;;14.38;47.12;101809.56;5037501;28;20044;-75
2022/03/26 09:34:27;;;;;;;20.77;8.90;;;;;;;14.15;47.26;101806.25;5054622;28;20379;-74
2022/03/26 09:36:53;;;;;;;20.70;9.70;;;;;;;14.10;47.75;101817.69;5054500;28;20040;-74
2022/03/26 09:39:19;;;;;;;21.40;8.70;;;;;;;14.17;47.23;101807.72;5054340;28;20017;-74
2022/03/26 09:41:46;;;;;;;21.73;9.23;;;;;;;14.42;46.57;101802.75;5054425;28;20044;-74
2022/03/26 09:44:12;;;;;;;29.25;9.38;;;;;;;14.62;46.36;101808.34;5054600;28;20036;-76
2022/03/26 09:46:37;;;;;;;19.80;8.57;;;;;;;14.58;46.29;101807.88;5054594;28;20028;-75
2022/03/26 09:49:03;;;;;;;21.17;9.23;;;;;;;14.68;46.25;101807.56;5054640;28;20037;-74
2022/03/26 09:51:29;;;;;;;23.75;9.73;;;;;;;14.60;46.54;101796.84;5054556;28;20259;-75
2022/03/26 09:53:56;;;;;;;23.42;10.48;;;;;;;14.67;46.76;101805.88;5054755;28;20048;-75
2022/03/26 09:56:23;;;;;;;23.48;9.77;;;;;;;14.89;45.73;101803.91;5054474;28;20036;-75
2022/03/26 09:58:51;;;;;;;24.35;8.85;;;;;;;15.11;46.44;101802.78;5036243;28;20037;-74
2022/03/26 10:01:16;;;;;;;20.40;8.05;;;;;;;15.14;45.51;101801.56;5054582;28;20028;-76
2022/03/26 10:04:12;;;;;;;17.80;7.67;;;;;;;15.02;46.24;101797.75;5054463;28;20057;-76
2022/03/26 10:06:49;;;;;;;20.30;9.07;;;;;;;15.20;44.94;101795.31;5054057;28;20162;-75
2022/03/26 10:09:33;;;;;;;19.02;8.48;;;;;;;15.06;45.37;101805.25;5054600;28;20033;-75
2022/03/26 10:12:21;;;;;;;17.20;7.72;;;;;;;15.26;45.04;101800.78;5054796;28;20057;-75
2022/03/26 10:15:04;;;;;;;21.88;9.02;;;;;;;15.42;44.37;101802.28;5053986;28;20382;-75
2022/03/26 10:17:34;;;;;;;20.15;9.55;;;;;;;15.24;45.17;101802.00;5054164;28;20051;-76
2022/03/26 10:20:08;;;;;;;18.23;7.38;;;;;;;15.44;44.96;101804.81;5053716;28;20118;-77
2022/03/26 10:22:39;;;;;;;18.90;7.50;;;;;;;15.26;44.85;101802.66;5053596;28;20036;-78
2022/03/26 10:25:13;;;;;;;19.00;7.55;;;;;;;15.44;44.65;101800.22;5035675;28;20470;-75
2022/03/26 10:27:42;;;;;;;18.77;7.30;;;;;;;15.33;44.56;101792.66;5035814;28;20036;-76
2022/03/26 10:30:11;;;;;;;16.67;7.55;;;;;;;15.40;43.39;101790.81;5053532;28;20092;-76
2022/03/26 10:32:45;;;;;;;13.35;6.35;;;;;;;15.32;43.21;101790.16;5053480;28;20044;-75
2022/03/26 10:35:13;;;;;;;12.27;5.57;;;;;;;15.52;41.53;101788.34;5053277;28;20032;-76
2022/03/26 10:37:46;;;;;;;13.82;5.47;;;;;;;15.38;41.61;101790.19;5053012;28;20024;-76
2022/03/26 10:40:20;;;;;;;16.55;6.00;;;;;;;15.72;41.53;101786.56;5052411;28;20422;-77
2022/03/26 10:42:51;;;;;;;11.32;4.72;;;;;;;15.60;41.93;101783.56;5053482;28;20028;-77
2022/03/26 10:45:17;;;;;;;12.38;5.30;;;;;;;15.69;41.89;101783.41;5053147;28;20029;-77
2022/03/26 10:47:42;;;;;;;11.57;5.10;;;;;;;15.90;42.20;101775.09;5053300;28;20033;-75
2022/03/26 10:50:07;;;;;;;;;;;;;;;15.91;42.03;101777.59;5054168;28;20029;-76
2022/03/26 10:52:33;;;;;;;13.50;4.93;;;;;;;15.97;41.40;101784.06;5052970;28;19917;-75
2022/03/26 10:55:01;;;;;;;12.43;4.40;;;;;;;16.16;40.81;101774.25;5052775;28;20360;-76
2022/03/26 10:57:27;;;;;;;11.93;4.40;;;;;;;16.00;41.25;101775.50;5052890;28;20036;-76
2022/03/26 10:59:57;;;;;;;8.35;3.90;;;;;;;16.19;42.71;101771.97;5052949;28;20021;-77
2022/03/26 11:02:23;;;;;;;10.65;4.85;;;;;;;15.92;41.85;101771.13;5035861;28;20036;-74
2022/03/26 11:04:48;;;;;;;11.05;4.18;;;;;;;15.90;42.45;101767.78;5035175;28;20047;-76
2022/03/26 11:07:14;;;;;;;;;;;;;;;16.43;41.13;101769.66;5053853;28;20037;-76
2022/03/26 11:09:40;;;;;;;9.95;3.97;;;;;;;16.12;41.81;101767.59;5052888;28;19920;-76
2022/03/26 11:12:06;;;;;;;10.43;4.18;;;;;;;16.17;41.75;101768.63;5052922;28;20111;-76
2022/03/26 11:14:37;;;;;;;10.98;3.75;;;;;;;16.46;41.12;101761.09;5034946;28;20459;-75